createdAt,value
2023-02-04T00:01:20.392Z,2.49
2023-02-04T00:03:46.881Z,2.46
2023-02-04T00:06:13.356Z,2.51
2023-02-04T00:08:39.976Z,2.53
2023-02-04T00:11:06.457Z,2.60
2023-02-04T00:13:32.924Z,2.55
2023-02-04T00:15:59.526Z,2.54
2023-02-04T00:18:26.231Z,2.65
2023-02-04T00:20:52.801Z,2.63
2023-02-04T00:23:19.238Z,2.66
2023-02-04T00:25:45.714Z,2.68
2023-02-04T00:28:12.212Z,2.72
2023-02-04T00:30:38.689Z,2.68
2023-02-04T00:33:05.120Z,2.72
2023-02-04T00:35:31.706Z,2.64
2023-02-04T00:37:58.206Z,2.56
2023-02-04T00:40:24.661Z,2.65
2023-02-04T00:42:51.202Z,2.63
2023-02-04T00:45:17.650Z,2.63
2023-02-04T00:47:44.112Z,2.71
2023-02-04T00:50:10.593Z,2.71
2023-02-04T00:52:37.061Z,2.68
2023-02-04T00:55:03.633Z,2.71
2023-02-04T00:57:30.164Z,2.72
2023-02-04T00:59:56.594Z,2.70
2023-02-04T01:02:23.048Z,2.65
2023-02-04T01:04:49.527Z,2.69
2023-02-04T01:07:16.046Z,2.76
2023-02-04T01:09:42.553Z,2.75
2023-02-04T01:12:22.416Z,2.75
2023-02-04T01:14:49.146Z,2.80
2023-02-04T01:17:15.606Z,2.74
2023-02-04T01:19:42.197Z,2.73
2023-02-04T01:22:08.657Z,2.75
2023-02-04T01:24:35.189Z,2.77
2023-02-04T01:27:01.648Z,2.77
2023-02-04T01:29:28.077Z,2.80
2023-02-04T01:31:54.650Z,2.77
2023-02-04T01:34:21.171Z,2.76
2023-02-04T01:36:47.633Z,2.76
2023-02-04T01:39:14.129Z,2.75
2023-02-04T01:41:40.592Z,2.78
2023-02-04T01:44:07.044Z,2.75
2023-02-04T01:46:35.802Z,2.66
2023-02-04T01:49:04.167Z,2.65
2023-02-04T01:54:59.280Z,2.65
2023-02-04T01:57:25.831Z,2.66
2023-02-04T01:59:53.025Z,2.66
2023-02-04T02:02:38.712Z,2.60
2023-02-04T02:05:05.551Z,2.61
2023-02-04T02:07:31.995Z,2.63
2023-02-04T02:09:58.497Z,2.65
2023-02-04T02:12:24.972Z,2.63
2023-02-04T02:14:51.413Z,2.61
2023-02-04T02:17:17.889Z,2.61
2023-02-04T02:19:44.381Z,2.57
2023-02-04T02:22:16.976Z,2.59
2023-02-04T02:24:43.492Z,2.63
2023-02-04T02:27:10.448Z,2.61
2023-02-04T02:29:37.543Z,2.51
2023-02-04T02:32:04.049Z,2.46
2023-02-04T02:34:30.759Z,2.47
2023-02-04T02:36:57.837Z,2.56
2023-02-04T02:39:24.367Z,2.60
2023-02-04T02:41:50.847Z,2.62
2023-02-04T02:44:17.308Z,2.58
2023-02-04T02:46:43.867Z,2.46
2023-02-04T02:49:15.029Z,2.38
2023-02-04T02:51:41.792Z,2.31
2023-02-04T02:54:12.556Z,2.38
2023-02-04T02:56:39.010Z,2.51
2023-02-04T02:59:15.553Z,2.41
2023-02-04T03:01:42.150Z,2.14
2023-02-04T03:04:08.624Z,1.94
2023-02-04T03:10:03.683Z,1.59
2023-02-04T03:12:30.231Z,1.55
2023-02-04T03:14:56.675Z,1.50
2023-02-04T03:17:23.176Z,1.45
2023-02-04T03:19:49.640Z,1.45
2023-02-04T03:22:16.129Z,1.44
2023-02-04T03:24:42.586Z,1.47
2023-02-04T03:27:09.151Z,1.50
2023-02-04T03:29:40.776Z,1.53
2023-02-04T03:32:07.221Z,1.49
2023-02-04T03:34:33.703Z,1.50
2023-02-04T03:37:00.190Z,1.51
2023-02-04T03:39:26.641Z,1.54
2023-02-04T03:41:53.114Z,1.56
2023-02-04T03:44:19.711Z,1.56
2023-02-04T03:46:46.182Z,1.59
2023-02-04T03:49:12.799Z,1.62
2023-02-04T03:51:39.271Z,1.61
2023-02-04T03:54:05.699Z,1.67
2023-02-04T03:56:32.163Z,1.72
2023-02-04T03:58:58.618Z,1.74
2023-02-04T04:01:25.176Z,1.69
2023-02-04T04:03:51.678Z,1.65
2023-02-04T04:06:18.178Z,1.57
2023-02-04T04:08:44.705Z,1.48
2023-02-04T04:11:11.757Z,1.49
2023-02-04T04:13:38.220Z,1.34
2023-02-04T04:16:05.157Z,1.18
2023-02-04T04:18:32.922Z,1.03
2023-02-04T04:20:59.599Z,0.87
2023-02-04T04:23:26.117Z,0.78
2023-02-04T04:25:52.651Z,0.91
2023-02-04T04:28:19.221Z,0.70
2023-02-04T04:30:45.814Z,0.51
2023-02-04T04:33:12.417Z,0.40
2023-02-04T04:35:39.020Z,0.37
2023-02-04T04:38:05.531Z,0.29
2023-02-04T04:40:32.321Z,0.00
2023-02-04T04:42:58.963Z,-0.20
2023-02-04T04:45:25.426Z,-0.12
2023-02-04T04:47:51.892Z,-0.08
2023-02-04T04:50:18.408Z,-0.21
2023-02-04T04:52:44.867Z,-0.16
2023-02-04T04:55:11.342Z,-0.29
2023-02-04T04:57:37.888Z,-0.45
2023-02-04T05:00:05.122Z,-0.52
2023-02-04T05:02:31.817Z,-0.36
2023-02-04T05:04:58.360Z,-0.42
2023-02-04T05:07:24.815Z,-0.42
2023-02-04T05:09:51.297Z,-0.59
2023-02-04T05:12:17.740Z,-0.66
2023-02-04T05:14:44.238Z,-0.83
2023-02-04T05:17:10.714Z,-0.84
2023-02-04T05:19:37.225Z,-0.87
2023-02-04T05:22:03.697Z,-0.85
2023-02-04T05:24:30.168Z,-0.92
2023-02-04T05:26:56.656Z,-0.88
2023-02-04T05:29:23.140Z,-0.95
2023-02-04T05:31:49.682Z,-0.95
2023-02-04T05:34:16.185Z,-1.00
2023-02-04T05:36:42.632Z,-0.95
2023-02-04T05:39:09.161Z,-0.99
2023-02-04T05:41:35.614Z,-0.98
2023-02-04T05:44:02.365Z,-0.99
2023-02-04T05:46:28.844Z,-0.94
2023-02-04T05:48:55.355Z,-0.99
2023-02-04T05:51:21.844Z,-0.94
2023-02-04T05:53:48.333Z,-1.08
2023-02-04T05:56:14.821Z,-1.15
2023-02-04T05:58:41.260Z,-1.16
2023-02-04T06:01:07.793Z,-1.14
2023-02-04T06:03:57.072Z,-0.97
2023-02-04T06:06:23.642Z,-1.05
2023-02-04T06:08:50.137Z,-0.90
2023-02-04T06:11:16.571Z,-0.97
2023-02-04T06:13:43.076Z,-0.97
2023-02-04T06:16:09.633Z,-1.05
2023-02-04T06:18:36.205Z,-1.07
2023-02-04T06:21:04.781Z,-1.02
2023-02-04T06:23:31.901Z,-0.99
2023-02-04T06:25:58.338Z,-1.01
2023-02-04T06:28:55.098Z,-1.09
2023-02-04T06:31:21.638Z,-1.06
2023-02-04T06:33:48.206Z,-1.12
2023-02-04T06:36:14.924Z,-0.93
2023-02-04T06:38:41.524Z,-0.87
2023-02-04T06:41:16.299Z,-1.07
2023-02-04T06:43:42.797Z,-1.20
2023-02-04T06:46:09.325Z,-1.30
2023-02-04T06:48:35.865Z,-1.23
2023-02-04T06:51:02.318Z,-1.05
2023-02-04T06:53:28.759Z,-1.23
2023-02-04T06:55:55.291Z,-1.35
2023-02-04T06:58:21.856Z,-1.30
2023-02-04T07:00:48.331Z,-1.39
2023-02-04T07:03:14.836Z,-1.41
2023-02-04T07:05:41.424Z,-1.54
2023-02-04T07:08:07.915Z,-1.61
2023-02-04T07:10:34.655Z,-1.76
2023-02-04T07:13:01.265Z,-1.75
2023-02-04T07:15:27.809Z,-1.81
2023-02-04T07:17:54.422Z,-1.84
2023-02-04T07:20:20.899Z,-1.71
2023-02-04T07:22:47.437Z,-1.75
2023-02-04T07:25:16.117Z,-1.81
2023-02-04T07:27:42.667Z,-1.75
2023-02-04T07:30:09.904Z,-1.71
2023-02-04T07:32:36.503Z,-1.72
2023-02-04T07:35:03.001Z,-1.86
2023-02-04T07:37:31.120Z,-1.92
2023-02-04T07:39:57.711Z,-1.81
2023-02-04T07:42:25.063Z,-1.85
2023-02-04T07:44:51.542Z,-1.90
2023-02-04T07:47:19.062Z,-2.03
2023-02-04T07:49:45.513Z,-2.05
2023-02-04T07:52:12.480Z,-2.07
2023-02-04T07:54:38.974Z,-1.92
2023-02-04T07:57:05.424Z,-1.79
2023-02-04T07:59:31.880Z,-1.93
2023-02-04T08:01:58.465Z,-1.85
2023-02-04T08:04:24.986Z,-1.90
2023-02-04T08:10:21.505Z,-1.74
2023-02-04T08:12:47.966Z,-1.77
2023-02-04T08:15:14.425Z,-1.77
2023-02-04T08:17:40.889Z,-1.79
2023-02-04T08:20:09.317Z,-1.73
2023-02-04T08:22:35.844Z,-1.68
2023-02-04T08:25:02.945Z,-1.63
2023-02-04T08:27:29.452Z,-1.81
2023-02-04T08:29:55.889Z,-1.95
2023-02-04T08:32:22.424Z,-1.87
2023-02-04T08:34:49.122Z,-1.91
2023-02-04T08:37:15.765Z,-1.97
2023-02-04T08:39:46.375Z,-1.85
2023-02-04T08:42:13.351Z,-1.95
2023-02-04T08:44:39.871Z,-1.99
2023-02-04T08:47:06.355Z,-2.01
2023-02-04T08:49:32.876Z,-1.81
2023-02-04T08:55:20.731Z,-1.95
2023-02-04T08:57:47.164Z,-1.93
2023-02-04T09:00:13.892Z,-1.88
2023-02-04T09:06:08.758Z,-1.94
2023-02-04T09:08:35.258Z,-1.89
2023-02-04T09:11:01.978Z,-1.98
2023-02-04T09:13:28.642Z,-2.35
2023-02-04T09:15:55.256Z,-1.82
2023-02-04T09:18:22.672Z,-1.85
2023-02-04T09:20:49.363Z,-1.79
2023-02-04T09:23:15.952Z,-1.65
2023-02-04T09:25:43.297Z,-1.66
2023-02-04T09:28:13.086Z,-1.60
2023-02-04T09:30:39.985Z,-1.68
2023-02-04T09:33:09.355Z,-1.53
2023-02-04T09:35:36.067Z,-1.57
2023-02-04T09:38:02.711Z,-1.56
2023-02-04T09:40:30.280Z,-1.69
2023-02-04T09:42:56.938Z,-1.61
2023-02-04T09:45:28.248Z,-1.59
2023-02-04T09:47:55.025Z,-1.63
2023-02-04T09:50:22.222Z,-1.64
2023-02-04T09:52:49.556Z,-1.44
2023-02-04T09:55:16.459Z,-1.46
2023-02-04T09:57:43.105Z,-1.37
2023-02-04T10:00:19.937Z,-1.52
2023-02-04T10:02:46.396Z,-1.60
2023-02-04T10:08:40.881Z,-1.54
2023-02-04T10:11:09.374Z,-1.66
2023-02-04T10:13:41.891Z,-1.52
2023-02-04T10:16:16.048Z,-1.59
2023-02-04T10:18:42.557Z,-1.63
2023-02-04T10:21:12.124Z,-1.40
2023-02-04T10:23:38.593Z,-1.40
2023-02-04T10:26:05.615Z,-1.33
2023-02-04T10:28:35.526Z,-1.36
2023-02-04T10:31:02.143Z,-1.22
2023-02-04T10:33:28.737Z,-1.11
2023-02-04T10:35:58.292Z,-1.24
2023-02-04T10:38:24.874Z,-1.18
2023-02-04T10:41:03.975Z,-1.23
2023-02-04T10:43:30.482Z,-1.17
2023-02-04T10:46:01.374Z,-1.27
2023-02-04T10:48:30.155Z,-1.19
2023-02-04T10:50:56.900Z,-1.11
2023-02-04T10:53:42.230Z,-1.13
2023-02-04T10:56:16.567Z,-1.24
2023-02-04T10:58:43.229Z,-1.32
2023-02-04T11:01:13.282Z,-1.37
2023-02-04T11:03:40.519Z,-1.17
2023-02-04T11:06:18.272Z,-1.18
2023-02-04T11:08:44.938Z,-1.17
2023-02-04T11:11:15.867Z,-1.06
2023-02-04T11:13:51.640Z,-0.98
2023-02-04T11:16:18.115Z,-0.74
2023-02-04T11:18:46.445Z,-0.61
2023-02-04T11:21:22.816Z,-0.38
2023-02-04T11:23:49.309Z,-0.39
2023-02-04T11:26:19.269Z,-0.42
2023-02-04T11:28:50.113Z,-0.41
2023-02-04T11:31:19.838Z,-0.32
2023-02-04T11:33:46.371Z,-0.48
2023-02-04T11:36:14.547Z,-0.56
2023-02-04T11:38:44.741Z,-0.70
2023-02-04T11:41:19.276Z,-0.70
2023-02-04T11:43:45.720Z,-0.78
2023-02-04T11:46:13.287Z,-0.77
2023-02-04T11:48:39.793Z,-0.67
2023-02-04T11:51:15.964Z,-0.79
2023-02-04T11:53:42.576Z,-0.94
2023-02-04T11:56:16.948Z,-0.90
2023-02-04T11:58:43.432Z,-0.93
2023-02-04T12:01:21.387Z,-0.89
2023-02-04T12:03:51.866Z,-0.85
2023-02-04T12:06:21.888Z,-0.77
2023-02-04T12:08:48.618Z,-0.72
2023-02-04T12:11:27.900Z,-0.81
2023-02-04T12:13:54.841Z,-0.69
2023-02-04T12:16:21.324Z,-0.71
2023-02-04T12:18:47.939Z,-0.66
2023-02-04T12:21:18.907Z,-0.52
2023-02-04T12:23:45.484Z,-0.48
2023-02-04T12:26:12.560Z,-0.50
2023-02-04T12:28:39.115Z,-0.42
2023-02-04T12:31:05.725Z,-0.40
2023-02-04T12:33:32.273Z,-0.41
2023-02-04T12:35:59.106Z,-0.52
2023-02-04T12:38:25.625Z,-0.46
2023-02-04T12:40:52.111Z,-0.56
2023-02-04T12:43:18.667Z,-0.47
2023-02-04T12:45:46.485Z,-0.24
2023-02-04T12:48:14.208Z,-0.36
2023-02-04T12:50:40.831Z,-0.43
2023-02-04T12:53:07.360Z,-0.52
2023-02-04T12:55:34.307Z,-0.44
2023-02-04T12:58:01.189Z,-0.54
2023-02-04T13:00:27.862Z,-0.52
2023-02-04T13:02:59.283Z,-0.56
2023-02-04T13:05:25.812Z,-0.62
2023-02-04T13:07:52.315Z,-0.61
2023-02-04T13:10:20.155Z,-0.52
2023-02-04T13:12:46.851Z,-0.57
2023-02-04T13:15:13.638Z,-0.57
2023-02-04T13:17:40.214Z,-0.56
2023-02-04T13:20:06.841Z,-0.65
2023-02-04T13:22:33.394Z,-0.68
2023-02-04T13:24:59.840Z,-0.71
2023-02-04T13:27:42.853Z,-0.71
2023-02-04T13:30:09.785Z,-0.67
2023-02-04T13:32:36.234Z,-0.66
2023-02-04T13:35:02.685Z,-0.62
2023-02-04T13:37:29.182Z,-0.57
2023-02-04T13:39:55.707Z,-0.58
2023-02-04T13:42:22.167Z,-0.46
2023-02-04T13:44:48.631Z,-0.57
2023-02-04T13:47:15.164Z,-0.62
2023-02-04T13:49:41.684Z,-0.67
2023-02-04T13:52:08.155Z,-0.69
2023-02-04T13:54:36.700Z,-0.72
2023-02-04T13:57:09.214Z,-0.62
2023-02-04T13:59:35.750Z,-0.53
2023-02-04T14:02:02.295Z,-0.48
2023-02-04T14:04:28.847Z,-0.56
2023-02-04T14:06:56.586Z,-0.70
2023-02-04T14:09:23.349Z,-0.72
2023-02-04T14:11:49.876Z,-0.81
2023-02-04T14:14:17.095Z,-0.98
2023-02-04T14:16:43.615Z,-1.04
2023-02-04T14:19:10.222Z,-1.07
2023-02-04T14:21:36.690Z,-1.00
2023-02-04T14:24:03.241Z,-1.00
2023-02-04T14:26:29.727Z,-0.98
2023-02-04T14:28:56.166Z,-1.04
2023-02-04T14:31:22.734Z,-1.18
2023-02-04T14:33:50.489Z,-1.28
2023-02-04T14:36:17.021Z,-1.36
2023-02-04T14:38:43.841Z,-1.41
2023-02-04T14:41:11.500Z,-1.45
2023-02-04T14:43:37.974Z,-1.42
2023-02-04T14:46:05.536Z,-1.36
2023-02-04T14:48:32.211Z,-1.35
2023-02-04T14:50:58.673Z,-1.34
2023-02-04T14:53:25.128Z,-1.28
2023-02-04T14:55:51.552Z,-1.31
2023-02-04T14:58:18.488Z,-1.35
2023-02-04T15:00:44.995Z,-1.43
2023-02-04T15:03:11.473Z,-1.70
2023-02-04T15:05:37.993Z,-1.96
2023-02-04T15:08:04.815Z,-2.17
2023-02-04T15:10:31.723Z,-2.26
2023-02-04T15:12:59.215Z,-2.45
2023-02-04T15:15:25.650Z,-2.61
2023-02-04T15:17:52.221Z,-2.79
2023-02-04T15:20:18.755Z,-2.82
2023-02-04T15:22:45.302Z,-2.86
2023-02-04T15:25:12.719Z,-2.92
2023-02-04T15:27:39.187Z,-2.92
2023-02-04T15:30:05.758Z,-2.90
2023-02-04T15:32:32.336Z,-2.84
2023-02-04T15:34:58.795Z,-2.84
2023-02-04T15:37:25.307Z,-2.83
2023-02-04T15:39:51.816Z,-2.75
2023-02-04T15:42:18.263Z,-2.73
2023-02-04T15:44:44.731Z,-2.73
2023-02-04T15:47:11.168Z,-2.63
2023-02-04T15:49:37.817Z,-2.57
2023-02-04T15:52:05.808Z,-2.49
2023-02-04T15:54:35.370Z,-2.43
2023-02-04T15:57:03.338Z,-2.45
2023-02-04T15:59:29.988Z,-2.55
2023-02-04T16:01:56.434Z,-2.61
2023-02-04T16:04:23.031Z,-2.68
2023-02-04T16:06:58.194Z,-2.65
2023-02-04T16:09:25.584Z,-2.65
2023-02-04T16:11:52.074Z,-2.60
2023-02-04T16:14:18.707Z,-2.66
2023-02-04T16:16:45.196Z,-2.71
2023-02-04T16:19:11.714Z,-2.60
2023-02-04T16:21:38.173Z,-2.56
2023-02-04T16:24:04.833Z,-2.66
2023-02-04T16:26:51.747Z,-2.73
2023-02-04T16:29:18.259Z,-2.75
2023-02-04T16:31:44.775Z,-2.62
2023-02-04T16:34:11.372Z,-2.63
2023-02-04T16:36:37.832Z,-2.63
2023-02-04T16:39:04.337Z,-2.68
2023-02-04T16:41:31.035Z,-2.66
2023-02-04T16:43:58.260Z,-2.43
2023-02-04T16:46:24.771Z,-2.53
2023-02-04T16:48:51.226Z,-2.61
2023-02-04T16:51:20.559Z,-2.65
2023-02-04T16:53:47.272Z,-2.60
2023-02-04T16:56:13.681Z,-2.62
2023-02-04T16:58:40.229Z,-2.51
2023-02-04T17:01:06.925Z,-2.57
2023-02-04T17:03:34.423Z,-2.57
2023-02-04T17:06:01.094Z,-2.58
2023-02-04T17:08:28.312Z,-2.56
2023-02-04T17:11:13.527Z,-2.46
2023-02-04T17:13:40.042Z,-2.49
2023-02-04T17:16:06.568Z,-2.48
2023-02-04T17:18:33.130Z,-2.46
2023-02-04T17:20:59.638Z,-2.44
2023-02-04T17:23:26.936Z,-2.50
2023-02-04T17:25:53.538Z,-2.52
2023-02-04T17:28:20.135Z,-2.47
2023-02-04T17:30:46.757Z,-2.56
2023-02-04T17:33:13.331Z,-2.46
2023-02-04T17:35:39.993Z,-2.44
2023-02-04T17:38:06.571Z,-2.48
2023-02-04T17:40:33.264Z,-2.47
2023-02-04T17:42:59.721Z,-2.30
2023-02-04T17:45:26.325Z,-2.32
2023-02-04T17:47:52.761Z,-2.42
2023-02-04T17:50:19.290Z,-2.43
2023-02-04T17:52:45.933Z,-2.31
2023-02-04T17:55:27.723Z,-2.40
2023-02-04T17:57:54.875Z,-2.47
2023-02-04T18:00:21.783Z,-2.51
2023-02-04T18:02:49.733Z,-2.26
2023-02-04T18:05:17.421Z,-2.37
2023-02-04T18:07:46.035Z,-2.45
2023-02-04T18:10:20.695Z,-2.56
2023-02-04T18:12:47.165Z,-2.52
2023-02-04T18:15:19.247Z,-2.50
2023-02-04T18:17:45.752Z,-2.45
2023-02-04T18:20:17.016Z,-2.50
2023-02-04T18:22:43.440Z,-2.52
2023-02-04T18:25:13.407Z,-2.59
2023-02-04T18:27:39.895Z,-2.69
2023-02-04T18:30:07.685Z,-2.66
2023-02-04T18:32:38.083Z,-2.71
2023-02-04T18:35:19.416Z,-2.72
2023-02-04T18:37:46.548Z,-2.76
2023-02-04T18:40:25.657Z,-2.75
2023-02-04T18:42:55.550Z,-2.65
2023-02-04T18:45:23.893Z,-2.57
2023-02-04T18:47:51.778Z,-2.57
2023-02-04T18:50:23.102Z,-2.48
2023-02-04T18:52:49.875Z,-2.45
2023-02-04T18:55:19.473Z,-2.50
2023-02-04T18:57:45.967Z,-2.52
2023-02-04T19:00:13.964Z,-2.52
2023-02-04T19:03:15.783Z,-2.55
2023-02-04T19:05:43.464Z,-2.47
2023-02-04T19:08:29.832Z,-2.29
2023-02-04T19:10:57.308Z,-2.34
2023-02-04T19:13:40.948Z,-2.42
2023-02-04T19:16:14.914Z,-2.44
2023-02-04T19:18:44.757Z,-2.44
2023-02-04T19:21:27.613Z,-2.35
2023-02-04T19:24:14.170Z,-2.33
2023-02-04T19:26:42.153Z,-2.42
2023-02-04T19:29:30.223Z,-2.39
2023-02-04T19:32:00.542Z,-2.35
2023-02-04T19:34:28.302Z,-2.34
2023-02-04T19:36:54.831Z,-2.38
2023-02-04T19:39:29.789Z,-2.43
2023-02-04T19:41:56.616Z,-2.37
2023-02-04T19:44:35.523Z,-2.33
2023-02-04T19:47:13.359Z,-2.34
2023-02-04T19:49:41.735Z,-2.26
2023-02-04T19:52:09.094Z,-2.26
2023-02-04T19:54:36.784Z,-2.30
2023-02-04T19:57:04.841Z,-2.34
2023-02-04T19:59:35.602Z,-2.42
2023-02-04T20:02:08.510Z,-2.29
2023-02-04T20:04:35.954Z,-2.34
2023-02-04T20:07:02.543Z,-2.28
2023-02-04T20:09:30.993Z,-2.33
2023-02-04T20:12:17.713Z,-2.40
2023-02-04T20:14:54.449Z,-2.41
2023-02-04T20:17:24.006Z,-2.42
2023-02-04T20:19:52.485Z,-2.47
2023-02-04T20:22:19.039Z,-2.45
2023-02-04T20:24:46.195Z,-2.44
2023-02-04T20:27:17.232Z,-2.53
2023-02-04T20:29:43.698Z,-2.57
2023-02-04T20:32:16.178Z,-2.58
2023-02-04T20:34:42.603Z,-2.41
2023-02-04T20:37:09.420Z,-2.39
2023-02-04T20:39:37.122Z,-2.41
2023-02-04T20:42:16.442Z,-2.43
2023-02-04T20:44:43.018Z,-2.51
2023-02-04T20:47:22.739Z,-2.32
2023-02-04T20:49:54.161Z,-2.34
2023-02-04T20:52:39.066Z,-2.45
2023-02-04T20:55:20.680Z,-2.45
2023-02-04T20:57:48.421Z,-2.46
2023-02-04T21:00:15.733Z,-2.25
2023-02-04T21:02:42.363Z,-2.30
2023-02-04T21:05:22.104Z,-2.28
2023-02-04T21:07:48.617Z,-2.23
2023-02-04T21:10:15.223Z,-2.38
2023-02-04T21:12:45.704Z,-2.44
2023-02-04T21:15:12.242Z,-2.47
2023-02-04T21:17:38.791Z,-2.50
2023-02-04T21:20:06.527Z,-2.48
2023-02-04T21:22:33.179Z,-2.50
2023-02-04T21:24:59.607Z,-2.52
2023-02-04T21:27:26.053Z,-2.48
2023-02-04T21:29:52.515Z,-2.54
2023-02-04T21:32:19.255Z,-2.51
2023-02-04T21:34:45.785Z,-2.41
2023-02-04T21:37:12.363Z,-2.39
2023-02-04T21:39:38.873Z,-2.31
2023-02-04T21:42:11.671Z,-2.23
2023-02-04T21:44:41.167Z,-2.35
2023-02-04T21:47:07.732Z,-2.51
2023-02-04T21:49:34.227Z,-2.53
2023-02-04T21:52:00.791Z,-2.60
2023-02-04T21:54:27.376Z,-2.60
2023-02-04T21:56:53.809Z,-2.47
2023-02-04T21:59:20.575Z,-2.46
2023-02-04T22:02:07.432Z,-2.54
2023-02-04T22:04:33.870Z,-2.69
2023-02-04T22:07:00.383Z,-2.70
2023-02-04T22:09:26.817Z,-2.65
2023-02-04T22:11:53.255Z,-2.69
2023-02-04T22:14:20.146Z,-2.65
2023-02-04T22:16:47.163Z,-2.81
2023-02-04T22:19:13.810Z,-2.83
2023-02-04T22:21:40.281Z,-2.86
2023-02-04T22:24:06.775Z,-2.91
2023-02-04T22:26:33.262Z,-2.96
2023-02-04T22:28:59.734Z,-2.97
2023-02-04T22:31:26.235Z,-3.03
2023-02-04T22:33:55.143Z,-2.94
2023-02-04T22:36:21.874Z,-3.01
2023-02-04T22:38:48.409Z,-3.02
2023-02-04T22:41:14.935Z,-3.06
2023-02-04T22:43:41.545Z,-3.01
2023-02-04T22:46:08.373Z,-3.05
2023-02-04T22:48:35.137Z,-2.92
2023-02-04T22:51:03.677Z,-2.77
2023-02-04T22:53:30.776Z,-2.85
2023-02-04T22:55:57.288Z,-2.86
2023-02-04T22:58:23.879Z,-2.84
2023-02-04T23:00:50.349Z,-2.72
2023-02-04T23:03:16.895Z,-2.83
2023-02-04T23:05:44.017Z,-2.93
2023-02-04T23:08:10.640Z,-2.89
2023-02-04T23:10:38.936Z,-2.85
2023-02-04T23:13:05.573Z,-2.95
2023-02-04T23:15:32.532Z,-2.95
2023-02-04T23:18:00.119Z,-2.89
2023-02-04T23:20:26.759Z,-3.03
2023-02-04T23:22:54.464Z,-2.98
2023-02-04T23:25:21.290Z,-2.97
2023-02-04T23:27:48.192Z,-3.05
2023-02-04T23:30:14.710Z,-3.14
2023-02-04T23:32:41.326Z,-3.12
2023-02-04T23:35:07.893Z,-3.09
2023-02-04T23:37:35.040Z,-3.17
2023-02-04T23:40:01.971Z,-3.22
2023-02-04T23:42:29.818Z,-3.06
2023-02-04T23:44:56.263Z,-3.11
2023-02-04T23:47:22.723Z,-3.11
2023-02-04T23:49:49.129Z,-3.06
2023-02-04T23:52:15.618Z,-3.15
2023-02-04T23:54:42.087Z,-3.15
2023-02-04T23:57:08.943Z,-3.12
2023-02-04T23:59:36.258Z,-3.17
